Aeroporto :







RITROVATECI SU...

 
LOGIN :

Iscrizione | Disclaimer

   EN    FR    IT 

 









Sommario :    VFR   VFR Marginale   IFR   IFR Intensivo   IFR Molto Intensivo
Visibilità : 
Base nubi : 
>= 8 km
>= 3000ft
5 / 8 km
1000 / 3000 ft
1500m / 5 km
500 / 1000 ft
800 / 1500m
200 / 500 ft
< 800m
< 200 ft
Simboli :   Temporali  Nebbia  Neve Forte  Precipitazioni Forti  Vento > 20 kt






- Altitudine del aeroporto : 23 ft
- Codice IATA : STT


TIST - King

ULTIMO METAR :
  • 251217Z 06010KT 3SM -RA BR FEW018 BKN033 OVC060 23/22 A3003 RMK AO2 P0019 T02330217

METARs OBSOLETI :
  • 251207Z 08012KT 1 1/2SM +RA BR FEW015 BKN028 OVC055 23/21 A3003 RMK AO2 P0017 T02280211
  • 251153Z 09013KT 2SM RA BR FEW018 SCT028 OVC039 23/21 A3003 RMK AO2 VIS 1V5 RAE00B47 SLP170 P0006 60022 70031 T02330211 10244 20228 53017
  • 251053Z 07014KT 10SM -RA SCT019 BKN034 OVC060 24/22 A3001 RMK AO2 RAB09 SLP161 P0012 T02390217 $
  • 251007Z 08009KT 10SM SCT020 BKN028 OVC085 24/22 A3000 RMK AO2 P0001 T02390217 $
  • 250953Z 04010G17KT 10SM FEW017 SCT030 OVC080 23/21 A2999 RMK AO2 RAE53 SLP156 P0000 T02330211 $

TAF TIST
Valido dal 25 a 12 ore il 26 a 12 ore UTC


251218Z 2512/2612 07016KT P6SM -SHRA SCT020 BKN040
TEMPO 2512/2514 2SM SHRA BKN025
FM251400 08012KT P6SM VCSH SCT020 SCT040 BKN060
FM251900 08011KT P6SM VCSH FEW020 SCT040



MetMap, La meteo Aeronautica in un colpo d'occhio ! - Copyright ORBIFLY Dicembre 2007 - Disclaimer

ORBIFLY MET'MAP TEAM :

Programmazione e sviluppo : Alexandra Zaïnal
Concezione : Baudouin d'Aumeries
Aiuto per la programmazione : Marc-Olivier Méhu
Supporto tecnico e logistico : Manuel Goepfert
Aiuto per la traduzione : Arnaldo La Scala

Contatto : metmap@orbifly.com




FONTI E CREDITI :

   NOAA